Aviation Digital Data Service (ADDS)

Output produced by METARs form (0341 UTC 19 August 2019)
found at http://www.aviationweather.gov/metar/data/
 
METAR text: OTBD 190330Z AUTO 34005KT CAVOK 32/25 Q1002 NOSIG
Conditions at: OTBD (DOHA INTL AIRPOR, QA) observed 0330 UTC 19 August 2019
Temperature: 32.0°C (90°F)
Dewpoint: 25.0°C (77°F) [RH = 67%]
Pressure (altimeter): 29.59 inches Hg (1002.0 mb)
Winds: from the NNW (340 degrees) at 6 MPH (5 knots; 2.6 m/s)
Visibility: 6 or more miles (10+ km)
Ceiling: ceiling and visibility are OK
Clouds: unknown
Weather: no significant weather observed at this time

METAR text: OTBD 190300Z VRB02KT CAVOK 32/24 Q1002 NOSIG
Conditions at: OTBD (DOHA INTL AIRPOR, QA) observed 0300 UTC 19 August 2019
Temperature: 32.0°C (90°F)
Dewpoint: 24.0°C (75°F) [RH = 63%]
Pressure (altimeter): 29.59 inches Hg (1002.0 mb)
Winds: variable direction winds at 2 MPH (2 knots; 1.0 m/s)
Visibility: 6 or more miles (10+ km)
Ceiling: ceiling and visibility are OK
Clouds: unknown
Weather: no significant weather observed at this time

METAR text: OTBD 190230Z VRB02KT 9000 NSC 32/25 Q1002 NOSIG
Conditions at: OTBD (DOHA INTL AIRPOR, QA) observed 0230 UTC 19 August 2019
Temperature: 32.0°C (90°F)
Dewpoint: 25.0°C (77°F) [RH = 67%]
Pressure (altimeter): 29.59 inches Hg (1002.0 mb)
Winds: variable direction winds at 2 MPH (2 knots; 1.0 m/s)
Visibility: 6 miles ( 9 km)
Ceiling: at least 12,000 feet AGL
Clouds: sky clear below 12,000 feet AGL
Weather: no significant weather observed at this time

METAR text: OTBD 190200Z AUTO 29003KT 230V320 CAVOK 32/25 Q1002 NOSIG
Conditions at: OTBD (DOHA INTL AIRPOR, QA) observed 0200 UTC 19 August 2019
Temperature: 32.0°C (90°F)
Dewpoint: 25.0°C (77°F) [RH = 67%]
Pressure (altimeter): 29.59 inches Hg (1002.0 mb)
Winds: from the WNW (290 degrees) at 3 MPH (3 knots; 1.5 m/s)
Visibility: 6 or more miles (10+ km)
Ceiling: ceiling and visibility are OK
Clouds: unknown
Weather: no significant weather observed at this time

METAR text: OTBD 190130Z AUTO VRB03KT CAVOK 32/25 Q1001 NOSIG
Conditions at: OTBD (DOHA INTL AIRPOR, QA) observed 0130 UTC 19 August 2019
Temperature: 32.0°C (90°F)
Dewpoint: 25.0°C (77°F) [RH = 67%]
Pressure (altimeter): 29.56 inches Hg (1001.0 mb)
Winds: variable direction winds at 3 MPH (3 knots; 1.5 m/s)
Visibility: 6 or more miles (10+ km)
Ceiling: ceiling and visibility are OK
Clouds: unknown
Weather: no significant weather observed at this time

METAR text: OTBD 190100Z AUTO 34004KT 290V350 CAVOK 32/28 Q1001 NOSIG
Conditions at: OTBD (DOHA INTL AIRPOR, QA) observed 0100 UTC 19 August 2019
Temperature: 32.0°C (90°F)
Dewpoint: 28.0°C (82°F) [RH = 80%]
Pressure (altimeter): 29.56 inches Hg (1001.0 mb)
Winds: from the NNW (340 degrees) at 5 MPH (4 knots; 2.1 m/s)
Visibility: 6 or more miles (10+ km)
Ceiling: ceiling and visibility are OK
Clouds: unknown
Weather: no significant weather observed at this time

METAR text: OTBD 190030Z AUTO VRB02KT CAVOK 32/28 Q1001 NOSIG
Conditions at: OTBD (DOHA INTL AIRPOR, QA) observed 0030 UTC 19 August 2019
Temperature: 32.0°C (90°F)
Dewpoint: 28.0°C (82°F) [RH = 80%]
Pressure (altimeter): 29.56 inches Hg (1001.0 mb)
Winds: variable direction winds at 2 MPH (2 knots; 1.0 m/s)
Visibility: 6 or more miles (10+ km)
Ceiling: ceiling and visibility are OK
Clouds: unknown
Weather: no significant weather observed at this time

METAR text: OTBD 190000Z AUTO VRB01KT CAVOK 32/28 Q1000 NOSIG
Conditions at: OTBD (DOHA INTL AIRPOR, QA) observed 0000 UTC 19 August 2019
Temperature: 32.0°C (90°F)
Dewpoint: 28.0°C (82°F) [RH = 80%]
Pressure (altimeter): 29.53 inches Hg (1000.0 mb)
Winds: variable direction winds at 1 MPH (1 knots; 0.5 m/s)
Visibility: 6 or more miles (10+ km)
Ceiling: ceiling and visibility are OK
Clouds: unknown
Weather: no significant weather observed at this time

METAR text: OTBD 182330Z AUTO VRB01KT CAVOK 32/28 Q1000 NOSIG
Conditions at: OTBD (DOHA INTL AIRPOR, QA) observed 2330 UTC 18 August 2019
Temperature: 32.0°C (90°F)
Dewpoint: 28.0°C (82°F) [RH = 80%]
Pressure (altimeter): 29.53 inches Hg (1000.0 mb)
Winds: variable direction winds at 1 MPH (1 knots; 0.5 m/s)
Visibility: 6 or more miles (10+ km)
Ceiling: ceiling and visibility are OK
Clouds: unknown
Weather: no significant weather observed at this time

METAR text: OTBD 182300Z AUTO VRB01KT CAVOK 32/28 Q1000 NOSIG
Conditions at: OTBD (DOHA INTL AIRPOR, QA) observed 2300 UTC 18 August 2019
Temperature: 32.0°C (90°F)
Dewpoint: 28.0°C (82°F) [RH = 80%]
Pressure (altimeter): 29.53 inches Hg (1000.0 mb)
Winds: variable direction winds at 1 MPH (1 knots; 0.5 m/s)
Visibility: 6 or more miles (10+ km)
Ceiling: ceiling and visibility are OK
Clouds: unknown
Weather: no significant weather observed at this time

METAR text: OTBD 182230Z AUTO 02002KT CAVOK 32/28 Q1000 NOSIG
Conditions at: OTBD (DOHA INTL AIRPOR, QA) observed 2230 UTC 18 August 2019
Temperature: 32.0°C (90°F)
Dewpoint: 28.0°C (82°F) [RH = 80%]
Pressure (altimeter): 29.53 inches Hg (1000.0 mb)
Winds: from the NNE (20 degrees) at 2 MPH (2 knots; 1.0 m/s)
Visibility: 6 or more miles (10+ km)
Ceiling: ceiling and visibility are OK
Clouds: unknown
Weather: no significant weather observed at this time

METAR text: OTBD 182200Z AUTO 04003KT 360V060 CAVOK 33/28 Q1001 NOSIG
Conditions at: OTBD (DOHA INTL AIRPOR, QA) observed 2200 UTC 18 August 2019
Temperature: 33.0°C (91°F)
Dewpoint: 28.0°C (82°F) [RH = 75%]
Pressure (altimeter): 29.56 inches Hg (1001.0 mb)
Winds: from the NE (40 degrees) at 3 MPH (3 knots; 1.5 m/s)
Visibility: 6 or more miles (10+ km)
Ceiling: ceiling and visibility are OK
Clouds: unknown
Weather: no significant weather observed at this time

METAR text: OTBD 182130Z AUTO 03003KT 350V050 CAVOK 33/28 Q1001 NOSIG
Conditions at: OTBD (DOHA INTL AIRPOR, QA) observed 2130 UTC 18 August 2019
Temperature: 33.0°C (91°F)
Dewpoint: 28.0°C (82°F) [RH = 75%]
Pressure (altimeter): 29.56 inches Hg (1001.0 mb)
Winds: from the NNE (30 degrees) at 3 MPH (3 knots; 1.5 m/s)
Visibility: 6 or more miles (10+ km)
Ceiling: ceiling and visibility are OK
Clouds: unknown
Weather: no significant weather observed at this time

METAR text: OTBD 182100Z AUTO 01006KT CAVOK 33/28 Q1001 NOSIG
Conditions at: OTBD (DOHA INTL AIRPOR, QA) observed 2100 UTC 18 August 2019
Temperature: 33.0°C (91°F)
Dewpoint: 28.0°C (82°F) [RH = 75%]
Pressure (altimeter): 29.56 inches Hg (1001.0 mb)
Winds: from the N (10 degrees) at 7 MPH (6 knots; 3.1 m/s)
Visibility: 6 or more miles (10+ km)
Ceiling: ceiling and visibility are OK
Clouds: unknown
Weather: no significant weather observed at this time

METAR text: OTBD 182030Z AUTO 01008KT CAVOK 33/27 Q1001 NOSIG
Conditions at: OTBD (DOHA INTL AIRPOR, QA) observed 2030 UTC 18 August 2019
Temperature: 33.0°C (91°F)
Dewpoint: 27.0°C (81°F) [RH = 71%]
Pressure (altimeter): 29.56 inches Hg (1001.0 mb)
Winds: from the N (10 degrees) at 9 MPH (8 knots; 4.1 m/s)
Visibility: 6 or more miles (10+ km)
Ceiling: ceiling and visibility are OK
Clouds: unknown
Weather: no significant weather observed at this time

METAR text: OTBD 182000Z AUTO 03008KT CAVOK 34/26 Q1002 NOSIG
Conditions at: OTBD (DOHA INTL AIRPOR, QA) observed 2000 UTC 18 August 2019
Temperature: 34.0°C (93°F)
Dewpoint: 26.0°C (79°F) [RH = 63%]
Pressure (altimeter): 29.59 inches Hg (1002.0 mb)
Winds: from the NNE (30 degrees) at 9 MPH (8 knots; 4.1 m/s)
Visibility: 6 or more miles (10+ km)
Ceiling: ceiling and visibility are OK
Clouds: unknown
Weather: no significant weather observed at this time

METAR text: OTBD 181930Z AUTO 36010KT CAVOK 34/27 Q1002 NOSIG
Conditions at: OTBD (DOHA INTL AIRPOR, QA) observed 1930 UTC 18 August 2019
Temperature: 34.0°C (93°F)
Dewpoint: 27.0°C (81°F) [RH = 67%]
Pressure (altimeter): 29.59 inches Hg (1002.0 mb)
Winds: from the N (360 degrees) at 12 MPH (10 knots; 5.1 m/s)
Visibility: 6 or more miles (10+ km)
Ceiling: ceiling and visibility are OK
Clouds: unknown
Weather: no significant weather observed at this time

METAR text: OTBD 181900Z AUTO 36010KT CAVOK 34/27 Q1002 NOSIG
Conditions at: OTBD (DOHA INTL AIRPOR, QA) observed 1900 UTC 18 August 2019
Temperature: 34.0°C (93°F)
Dewpoint: 27.0°C (81°F) [RH = 67%]
Pressure (altimeter): 29.59 inches Hg (1002.0 mb)
Winds: from the N (360 degrees) at 12 MPH (10 knots; 5.1 m/s)
Visibility: 6 or more miles (10+ km)
Ceiling: ceiling and visibility are OK
Clouds: unknown
Weather: no significant weather observed at this time

METAR text: OTBD 181830Z AUTO 36011KT CAVOK 34/27 Q1002 NOSIG
Conditions at: OTBD (DOHA INTL AIRPOR, QA) observed 1830 UTC 18 August 2019
Temperature: 34.0°C (93°F)
Dewpoint: 27.0°C (81°F) [RH = 67%]
Pressure (altimeter): 29.59 inches Hg (1002.0 mb)
Winds: from the N (360 degrees) at 13 MPH (11 knots; 5.7 m/s)
Visibility: 6 or more miles (10+ km)
Ceiling: ceiling and visibility are OK
Clouds: unknown
Weather: no significant weather observed at this time

METAR text: OTBD 181800Z AUTO 36011KT CAVOK 34/27 Q1002 NOSIG
Conditions at: OTBD (DOHA INTL AIRPOR, QA) observed 1800 UTC 18 August 2019
Temperature: 34.0°C (93°F)
Dewpoint: 27.0°C (81°F) [RH = 67%]
Pressure (altimeter): 29.59 inches Hg (1002.0 mb)
Winds: from the N (360 degrees) at 13 MPH (11 knots; 5.7 m/s)
Visibility: 6 or more miles (10+ km)
Ceiling: ceiling and visibility are OK
Clouds: unknown
Weather: no significant weather observed at this time

METAR text: OTBD 181730Z AUTO 36011KT CAVOK 34/27 Q1002 NOSIG
Conditions at: OTBD (DOHA INTL AIRPOR, QA) observed 1730 UTC 18 August 2019
Temperature: 34.0°C (93°F)
Dewpoint: 27.0°C (81°F) [RH = 67%]
Pressure (altimeter): 29.59 inches Hg (1002.0 mb)
Winds: from the N (360 degrees) at 13 MPH (11 knots; 5.7 m/s)
Visibility: 6 or more miles (10+ km)
Ceiling: ceiling and visibility are OK
Clouds: unknown
Weather: no significant weather observed at this time

METAR text: OTBD 181700Z AUTO 01010KT CAVOK 34/28 Q1001 NOSIG
Conditions at: OTBD (DOHA INTL AIRPOR, QA) observed 1700 UTC 18 August 2019
Temperature: 34.0°C (93°F)
Dewpoint: 28.0°C (82°F) [RH = 71%]
Pressure (altimeter): 29.56 inches Hg (1001.0 mb)
Winds: from the N (10 degrees) at 12 MPH (10 knots; 5.1 m/s)
Visibility: 6 or more miles (10+ km)
Ceiling: ceiling and visibility are OK
Clouds: unknown
Weather: no significant weather observed at this time

METAR text: OTBD 181630Z AUTO 36011KT CAVOK 34/28 Q1001 NOSIG
Conditions at: OTBD (DOHA INTL AIRPOR, QA) observed 1630 UTC 18 August 2019
Temperature: 34.0°C (93°F)
Dewpoint: 28.0°C (82°F) [RH = 71%]
Pressure (altimeter): 29.56 inches Hg (1001.0 mb)
Winds: from the N (360 degrees) at 13 MPH (11 knots; 5.7 m/s)
Visibility: 6 or more miles (10+ km)
Ceiling: ceiling and visibility are OK
Clouds: unknown
Weather: no significant weather observed at this time

METAR text: OTBD 181600Z AUTO 01010KT CAVOK 34/28 Q1001 NOSIG
Conditions at: OTBD (DOHA INTL AIRPOR, QA) observed 1600 UTC 18 August 2019
Temperature: 34.0°C (93°F)
Dewpoint: 28.0°C (82°F) [RH = 71%]
Pressure (altimeter): 29.56 inches Hg (1001.0 mb)
Winds: from the N (10 degrees) at 12 MPH (10 knots; 5.1 m/s)
Visibility: 6 or more miles (10+ km)
Ceiling: ceiling and visibility are OK
Clouds: unknown
Weather: no significant weather observed at this time

METAR text: OTBD 181530Z AUTO 36011KT CAVOK 35/28 Q1001 NOSIG
Conditions at: OTBD (DOHA INTL AIRPOR, QA) observed 1530 UTC 18 August 2019
Temperature: 35.0°C (95°F)
Dewpoint: 28.0°C (82°F) [RH = 67%]
Pressure (altimeter): 29.56 inches Hg (1001.0 mb)
Winds: from the N (360 degrees) at 13 MPH (11 knots; 5.7 m/s)
Visibility: 6 or more miles (10+ km)
Ceiling: ceiling and visibility are OK
Clouds: unknown
Weather: no significant weather observed at this time

METAR text: OTBD 181500Z AUTO 36012KT CAVOK 35/28 Q1000 NOSIG
Conditions at: OTBD (DOHA INTL AIRPOR, QA) observed 1500 UTC 18 August 2019
Temperature: 35.0°C (95°F)
Dewpoint: 28.0°C (82°F) [RH = 67%]
Pressure (altimeter): 29.53 inches Hg (1000.0 mb)
Winds: from the N (360 degrees) at 14 MPH (12 knots; 6.2 m/s)
Visibility: 6 or more miles (10+ km)
Ceiling: ceiling and visibility are OK
Clouds: unknown
Weather: no significant weather observed at this time

METAR text: OTBD 181430Z AUTO 01012KT CAVOK 35/27 Q1000 NOSIG
Conditions at: OTBD (DOHA INTL AIRPOR, QA) observed 1430 UTC 18 August 2019
Temperature: 35.0°C (95°F)
Dewpoint: 27.0°C (81°F) [RH = 63%]
Pressure (altimeter): 29.53 inches Hg (1000.0 mb)
Winds: from the N (10 degrees) at 14 MPH (12 knots; 6.2 m/s)
Visibility: 6 or more miles (10+ km)
Ceiling: ceiling and visibility are OK
Clouds: unknown
Weather: no significant weather observed at this time

METAR text: OTBD 181400Z AUTO 01012KT CAVOK 36/26 Q1000 NOSIG
Conditions at: OTBD (DOHA INTL AIRPOR, QA) observed 1400 UTC 18 August 2019
Temperature: 36.0°C (97°F)
Dewpoint: 26.0°C (79°F) [RH = 57%]
Pressure (altimeter): 29.53 inches Hg (1000.0 mb)
Winds: from the N (10 degrees) at 14 MPH (12 knots; 6.2 m/s)
Visibility: 6 or more miles (10+ km)
Ceiling: ceiling and visibility are OK
Clouds: unknown
Weather: no significant weather observed at this time

METAR text: OTBD 181330Z AUTO 02012KT CAVOK 37/26 Q1000 NOSIG
Conditions at: OTBD (DOHA INTL AIRPOR, QA) observed 1330 UTC 18 August 2019
Temperature: 37.0°C (99°F)
Dewpoint: 26.0°C (79°F) [RH = 54%]
Pressure (altimeter): 29.53 inches Hg (1000.0 mb)
Winds: from the NNE (20 degrees) at 14 MPH (12 knots; 6.2 m/s)
Visibility: 6 or more miles (10+ km)
Ceiling: ceiling and visibility are OK
Clouds: unknown
Weather: no significant weather observed at this time

METAR text: OTBD 181300Z AUTO 01013KT CAVOK 37/25 Q1000 NOSIG
Conditions at: OTBD (DOHA INTL AIRPOR, QA) observed 1300 UTC 18 August 2019
Temperature: 37.0°C (99°F)
Dewpoint: 25.0°C (77°F) [RH = 50%]
Pressure (altimeter): 29.53 inches Hg (1000.0 mb)
Winds: from the N (10 degrees) at 15 MPH (13 knots; 6.7 m/s)
Visibility: 6 or more miles (10+ km)
Ceiling: ceiling and visibility are OK
Clouds: unknown
Weather: no significant weather observed at this time

METAR text: OTBD 181230Z AUTO 01013KT CAVOK 38/24 Q0999 NOSIG
Conditions at: OTBD (DOHA INTL AIRPOR, QA) observed 1230 UTC 18 August 2019
Temperature: 38.0°C (100°F)
Dewpoint: 24.0°C (75°F) [RH = 45%]
Pressure (altimeter): 29.50 inches Hg (999.0 mb)
Winds: from the N (10 degrees) at 15 MPH (13 knots; 6.7 m/s)
Visibility: 6 or more miles (10+ km)
Ceiling: ceiling and visibility are OK
Clouds: unknown
Weather: no significant weather observed at this time

METAR text: OTBD 181200Z AUTO 01012KT CAVOK 38/23 Q0999 NOSIG
Conditions at: OTBD (DOHA INTL AIRPOR, QA) observed 1200 UTC 18 August 2019
Temperature: 38.0°C (100°F)
Dewpoint: 23.0°C (73°F) [RH = 42%]
Pressure (altimeter): 29.50 inches Hg (999.0 mb)
Winds: from the N (10 degrees) at 14 MPH (12 knots; 6.2 m/s)
Visibility: 6 or more miles (10+ km)
Ceiling: ceiling and visibility are OK
Clouds: unknown
Weather: no significant weather observed at this time

METAR text: OTBD 181130Z AUTO 01012KT CAVOK 39/22 Q0999 NOSIG
Conditions at: OTBD (DOHA INTL AIRPOR, QA) observed 1130 UTC 18 August 2019
Temperature: 39.0°C (102°F)
Dewpoint: 22.0°C (72°F) [RH = 38%]
Pressure (altimeter): 29.50 inches Hg (999.0 mb)
Winds: from the N (10 degrees) at 14 MPH (12 knots; 6.2 m/s)
Visibility: 6 or more miles (10+ km)
Ceiling: ceiling and visibility are OK
Clouds: unknown
Weather: no significant weather observed at this time

METAR text: OTBD 181100Z AUTO 36012KT CAVOK 39/20 Q1000 NOSIG
Conditions at: OTBD (DOHA INTL AIRPOR, QA) observed 1100 UTC 18 August 2019
Temperature: 39.0°C (102°F)
Dewpoint: 20.0°C (68°F) [RH = 33%]
Pressure (altimeter): 29.53 inches Hg (1000.0 mb)
Winds: from the N (360 degrees) at 14 MPH (12 knots; 6.2 m/s)
Visibility: 6 or more miles (10+ km)
Ceiling: ceiling and visibility are OK
Clouds: unknown
Weather: no significant weather observed at this time

METAR text: OTBD 181030Z AUTO 02010KT CAVOK 39/22 Q1000 NOSIG
Conditions at: OTBD (DOHA INTL AIRPOR, QA) observed 1030 UTC 18 August 2019
Temperature: 39.0°C (102°F)
Dewpoint: 22.0°C (72°F) [RH = 38%]
Pressure (altimeter): 29.53 inches Hg (1000.0 mb)
Winds: from the NNE (20 degrees) at 12 MPH (10 knots; 5.1 m/s)
Visibility: 6 or more miles (10+ km)
Ceiling: ceiling and visibility are OK
Clouds: unknown
Weather: no significant weather observed at this time

METAR text: OTBD 181000Z AUTO 01012KT CAVOK 39/21 Q1000 NOSIG
Conditions at: OTBD (DOHA INTL AIRPOR, QA) observed 1000 UTC 18 August 2019
Temperature: 39.0°C (102°F)
Dewpoint: 21.0°C (70°F) [RH = 36%]
Pressure (altimeter): 29.53 inches Hg (1000.0 mb)
Winds: from the N (10 degrees) at 14 MPH (12 knots; 6.2 m/s)
Visibility: 6 or more miles (10+ km)
Ceiling: ceiling and visibility are OK
Clouds: unknown
Weather: no significant weather observed at this time

METAR text: OTBD 180930Z AUTO 01012KT CAVOK 41/17 Q1000 NOSIG
Conditions at: OTBD (DOHA INTL AIRPOR, QA) observed 0930 UTC 18 August 2019
Temperature: 41.0°C (106°F)
Dewpoint: 17.0°C (63°F) [RH = 25%]
Pressure (altimeter): 29.53 inches Hg (1000.0 mb)
Winds: from the N (10 degrees) at 14 MPH (12 knots; 6.2 m/s)
Visibility: 6 or more miles (10+ km)
Ceiling: ceiling and visibility are OK
Clouds: unknown
Weather: no significant weather observed at this time

METAR text: OTBD 180900Z AUTO 01013KT CAVOK 41/13 Q1001 NOSIG
Conditions at: OTBD (DOHA INTL AIRPOR, QA) observed 0900 UTC 18 August 2019
Temperature: 41.0°C (106°F)
Dewpoint: 13.0°C (55°F) [RH = 19%]
Pressure (altimeter): 29.56 inches Hg (1001.0 mb)
Winds: from the N (10 degrees) at 15 MPH (13 knots; 6.7 m/s)
Visibility: 6 or more miles (10+ km)
Ceiling: ceiling and visibility are OK
Clouds: unknown
Weather: no significant weather observed at this time

METAR text: OTBD 180830Z AUTO 02014KT CAVOK 40/16 Q1001 NOSIG
Conditions at: OTBD (DOHA INTL AIRPOR, QA) observed 0830 UTC 18 August 2019
Temperature: 40.0°C (104°F)
Dewpoint: 16.0°C (61°F) [RH = 25%]
Pressure (altimeter): 29.56 inches Hg (1001.0 mb)
Winds: from the NNE (20 degrees) at 16 MPH (14 knots; 7.2 m/s)
Visibility: 6 or more miles (10+ km)
Ceiling: ceiling and visibility are OK
Clouds: unknown
Weather: no significant weather observed at this time

METAR text: OTBD 180800Z AUTO 02013KT CAVOK 40/19 Q1001 NOSIG
Conditions at: OTBD (DOHA INTL AIRPOR, QA) observed 0800 UTC 18 August 2019
Temperature: 40.0°C (104°F)
Dewpoint: 19.0°C (66°F) [RH = 30%]
Pressure (altimeter): 29.56 inches Hg (1001.0 mb)
Winds: from the NNE (20 degrees) at 15 MPH (13 knots; 6.7 m/s)
Visibility: 6 or more miles (10+ km)
Ceiling: ceiling and visibility are OK
Clouds: unknown
Weather: no significant weather observed at this time

METAR text: OTBD 180730Z AUTO 01011KT CAVOK 39/21 Q1001 NOSIG
Conditions at: OTBD (DOHA INTL AIRPOR, QA) observed 0730 UTC 18 August 2019
Temperature: 39.0°C (102°F)
Dewpoint: 21.0°C (70°F) [RH = 36%]
Pressure (altimeter): 29.56 inches Hg (1001.0 mb)
Winds: from the N (10 degrees) at 13 MPH (11 knots; 5.7 m/s)
Visibility: 6 or more miles (10+ km)
Ceiling: ceiling and visibility are OK
Clouds: unknown
Weather: no significant weather observed at this time

METAR text: OTBD 180700Z AUTO 35013KT CAVOK 39/21 Q1001 NOSIG
Conditions at: OTBD (DOHA INTL AIRPOR, QA) observed 0700 UTC 18 August 2019
Temperature: 39.0°C (102°F)
Dewpoint: 21.0°C (70°F) [RH = 36%]
Pressure (altimeter): 29.56 inches Hg (1001.0 mb)
Winds: from the N (350 degrees) at 15 MPH (13 knots; 6.7 m/s)
Visibility: 6 or more miles (10+ km)
Ceiling: ceiling and visibility are OK
Clouds: unknown
Weather: no significant weather observed at this time

METAR text: OTBD 180630Z AUTO 34014KT CAVOK 39/19 Q1001 NOSIG
Conditions at: OTBD (DOHA INTL AIRPOR, QA) observed 0630 UTC 18 August 2019
Temperature: 39.0°C (102°F)
Dewpoint: 19.0°C (66°F) [RH = 31%]
Pressure (altimeter): 29.56 inches Hg (1001.0 mb)
Winds: from the NNW (340 degrees) at 16 MPH (14 knots; 7.2 m/s)
Visibility: 6 or more miles (10+ km)
Ceiling: ceiling and visibility are OK
Clouds: unknown
Weather: no significant weather observed at this time

METAR text: OTBD 180600Z AUTO 34014KT CAVOK 39/18 Q1001 NOSIG
Conditions at: OTBD (DOHA INTL AIRPOR, QA) observed 0600 UTC 18 August 2019
Temperature: 39.0°C (102°F)
Dewpoint: 18.0°C (64°F) [RH = 30%]
Pressure (altimeter): 29.56 inches Hg (1001.0 mb)
Winds: from the NNW (340 degrees) at 16 MPH (14 knots; 7.2 m/s)
Visibility: 6 or more miles (10+ km)
Ceiling: ceiling and visibility are OK
Clouds: unknown
Weather: no significant weather observed at this time

METAR text: OTBD 180530Z AUTO 33012KT CAVOK 39/17 Q1001 NOSIG
Conditions at: OTBD (DOHA INTL AIRPOR, QA) observed 0530 UTC 18 August 2019
Temperature: 39.0°C (102°F)
Dewpoint: 17.0°C (63°F) [RH = 28%]
Pressure (altimeter): 29.56 inches Hg (1001.0 mb)
Winds: from the NNW (330 degrees) at 14 MPH (12 knots; 6.2 m/s)
Visibility: 6 or more miles (10+ km)
Ceiling: ceiling and visibility are OK
Clouds: unknown
Weather: no significant weather observed at this time

METAR text: OTBD 180500Z AUTO 32009KT 290V350 CAVOK 38/20 Q1000 NOSIG
Conditions at: OTBD (DOHA INTL AIRPOR, QA) observed 0500 UTC 18 August 2019
Temperature: 38.0°C (100°F)
Dewpoint: 20.0°C (68°F) [RH = 35%]
Pressure (altimeter): 29.53 inches Hg (1000.0 mb)
Winds: from the NW (320 degrees) at 10 MPH (9 knots; 4.6 m/s)
Visibility: 6 or more miles (10+ km)
Ceiling: ceiling and visibility are OK
Clouds: unknown
Weather: no significant weather observed at this time

METAR text: OTBD 180430Z AUTO 31009KT CAVOK 36/20 Q1000 NOSIG
Conditions at: OTBD (DOHA INTL AIRPOR, QA) observed 0430 UTC 18 August 2019
Temperature: 36.0°C (97°F)
Dewpoint: 20.0°C (68°F) [RH = 39%]
Pressure (altimeter): 29.53 inches Hg (1000.0 mb)
Winds: from the NW (310 degrees) at 10 MPH (9 knots; 4.6 m/s)
Visibility: 6 or more miles (10+ km)
Ceiling: ceiling and visibility are OK
Clouds: unknown
Weather: no significant weather observed at this time

METAR text: OTBD 180400Z AUTO 31009KT 280V340 CAVOK 35/21 Q1000 NOSIG
Conditions at: OTBD (DOHA INTL AIRPOR, QA) observed 0400 UTC 18 August 2019
Temperature: 35.0°C (95°F)
Dewpoint: 21.0°C (70°F) [RH = 44%]
Pressure (altimeter): 29.53 inches Hg (1000.0 mb)
Winds: from the NW (310 degrees) at 10 MPH (9 knots; 4.6 m/s)
Visibility: 6 or more miles (10+ km)
Ceiling: ceiling and visibility are OK
Clouds: unknown
Weather: no significant weather observed at this time

METAR text: OTBD 180330Z AUTO 30008KT 240V330 CAVOK 34/21 Q1000 NOSIG
Conditions at: OTBD (DOHA INTL AIRPOR, QA) observed 0330 UTC 18 August 2019
Temperature: 34.0°C (93°F)
Dewpoint: 21.0°C (70°F) [RH = 47%]
Pressure (altimeter): 29.53 inches Hg (1000.0 mb)
Winds: from the WNW (300 degrees) at 9 MPH (8 knots; 4.1 m/s)
Visibility: 6 or more miles (10+ km)
Ceiling: ceiling and visibility are OK
Clouds: unknown
Weather: no significant weather observed at this time

METAR text: OTBD 180300Z AUTO 30006KT 260V340 CAVOK 34/22 Q1000 NOSIG
Conditions at: OTBD (DOHA INTL AIRPOR, QA) observed 0300 UTC 18 August 2019
Temperature: 34.0°C (93°F)
Dewpoint: 22.0°C (72°F) [RH = 50%]
Pressure (altimeter): 29.53 inches Hg (1000.0 mb)
Winds: from the WNW (300 degrees) at 7 MPH (6 knots; 3.1 m/s)
Visibility: 6 or more miles (10+ km)
Ceiling: ceiling and visibility are OK
Clouds: unknown
Weather: no significant weather observed at this time

METAR text: OTBD 180230Z AUTO 30007KT CAVOK 34/21 Q0999 NOSIG
Conditions at: OTBD (DOHA INTL AIRPOR, QA) observed 0230 UTC 18 August 2019
Temperature: 34.0°C (93°F)
Dewpoint: 21.0°C (70°F) [RH = 47%]
Pressure (altimeter): 29.50 inches Hg (999.0 mb)
Winds: from the WNW (300 degrees) at 8 MPH (7 knots; 3.6 m/s)
Visibility: 6 or more miles (10+ km)
Ceiling: ceiling and visibility are OK
Clouds: unknown
Weather: no significant weather observed at this time

METAR text: OTBD 180200Z AUTO 30006KT 260V340 CAVOK 34/21 Q0999 NOSIG
Conditions at: OTBD (DOHA INTL AIRPOR, QA) observed 0200 UTC 18 August 2019
Temperature: 34.0°C (93°F)
Dewpoint: 21.0°C (70°F) [RH = 47%]
Pressure (altimeter): 29.50 inches Hg (999.0 mb)
Winds: from the WNW (300 degrees) at 7 MPH (6 knots; 3.1 m/s)
Visibility: 6 or more miles (10+ km)
Ceiling: ceiling and visibility are OK
Clouds: unknown
Weather: no significant weather observed at this time

METAR text: OTBD 180130Z AUTO 29008KT CAVOK 34/22 Q0999 NOSIG
Conditions at: OTBD (DOHA INTL AIRPOR, QA) observed 0130 UTC 18 August 2019
Temperature: 34.0°C (93°F)
Dewpoint: 22.0°C (72°F) [RH = 50%]
Pressure (altimeter): 29.50 inches Hg (999.0 mb)
Winds: from the WNW (290 degrees) at 9 MPH (8 knots; 4.1 m/s)
Visibility: 6 or more miles (10+ km)
Ceiling: ceiling and visibility are OK
Clouds: unknown
Weather: no significant weather observed at this time

METAR text: OTBD 180100Z AUTO 28005KT 250V320 CAVOK 33/23 Q0998 NOSIG
Conditions at: OTBD (DOHA INTL AIRPOR, QA) observed 0100 UTC 18 August 2019
Temperature: 33.0°C (91°F)
Dewpoint: 23.0°C (73°F) [RH = 56%]
Pressure (altimeter): 29.47 inches Hg (998.0 mb)
Winds: from the W (280 degrees) at 6 MPH (5 knots; 2.6 m/s)
Visibility: 6 or more miles (10+ km)
Ceiling: ceiling and visibility are OK
Clouds: unknown
Weather: no significant weather observed at this time

METAR text: OTBD 180030Z AUTO 28004KT 240V330 CAVOK 33/22 Q0998 NOSIG
Conditions at: OTBD (DOHA INTL AIRPOR, QA) observed 0030 UTC 18 August 2019
Temperature: 33.0°C (91°F)
Dewpoint: 22.0°C (72°F) [RH = 53%]
Pressure (altimeter): 29.47 inches Hg (998.0 mb)
Winds: from the W (280 degrees) at 5 MPH (4 knots; 2.1 m/s)
Visibility: 6 or more miles (10+ km)
Ceiling: ceiling and visibility are OK
Clouds: unknown
Weather: no significant weather observed at this time

METAR text: OTBD 180000Z AUTO 29005KT 250V320 CAVOK 33/23 Q0998 NOSIG
Conditions at: OTBD (DOHA INTL AIRPOR, QA) observed 0000 UTC 18 August 2019
Temperature: 33.0°C (91°F)
Dewpoint: 23.0°C (73°F) [RH = 56%]
Pressure (altimeter): 29.47 inches Hg (998.0 mb)
Winds: from the WNW (290 degrees) at 6 MPH (5 knots; 2.6 m/s)
Visibility: 6 or more miles (10+ km)
Ceiling: ceiling and visibility are OK
Clouds: unknown
Weather: no significant weather observed at this time

METAR text: OTBD 172330Z AUTO 26003KT 210V320 CAVOK 34/22 Q0998 NOSIG
Conditions at: OTBD (DOHA INTL AIRPOR, QA) observed 2330 UTC 17 August 2019
Temperature: 34.0°C (93°F)
Dewpoint: 22.0°C (72°F) [RH = 50%]
Pressure (altimeter): 29.47 inches Hg (998.0 mb)
Winds: from the W (260 degrees) at 3 MPH (3 knots; 1.5 m/s)
Visibility: 6 or more miles (10+ km)
Ceiling: ceiling and visibility are OK
Clouds: unknown
Weather: no significant weather observed at this time

METAR text: OTBD 172300Z AUTO 30005KT 260V330 CAVOK 35/20 Q0998 NOSIG
Conditions at: OTBD (DOHA INTL AIRPOR, QA) observed 2300 UTC 17 August 2019
Temperature: 35.0°C (95°F)
Dewpoint: 20.0°C (68°F) [RH = 42%]
Pressure (altimeter): 29.47 inches Hg (998.0 mb)
Winds: from the WNW (300 degrees) at 6 MPH (5 knots; 2.6 m/s)
Visibility: 6 or more miles (10+ km)
Ceiling: ceiling and visibility are OK
Clouds: unknown
Weather: no significant weather observed at this time

METAR text: OTBD 172230Z AUTO 31004KT 280V340 CAVOK 35/20 Q0998 NOSIG
Conditions at: OTBD (DOHA INTL AIRPOR, QA) observed 2230 UTC 17 August 2019
Temperature: 35.0°C (95°F)
Dewpoint: 20.0°C (68°F) [RH = 42%]
Pressure (altimeter): 29.47 inches Hg (998.0 mb)
Winds: from the NW (310 degrees) at 5 MPH (4 knots; 2.1 m/s)
Visibility: 6 or more miles (10+ km)
Ceiling: ceiling and visibility are OK
Clouds: unknown
Weather: no significant weather observed at this time

METAR text: OTBD 172200Z AUTO 32004KT CAVOK 35/19 Q0998 NOSIG
Conditions at: OTBD (DOHA INTL AIRPOR, QA) observed 2200 UTC 17 August 2019
Temperature: 35.0°C (95°F)
Dewpoint: 19.0°C (66°F) [RH = 39%]
Pressure (altimeter): 29.47 inches Hg (998.0 mb)
Winds: from the NW (320 degrees) at 5 MPH (4 knots; 2.1 m/s)
Visibility: 6 or more miles (10+ km)
Ceiling: ceiling and visibility are OK
Clouds: unknown
Weather: no significant weather observed at this time

METAR text: OTBD 172130Z AUTO 34004KT CAVOK 33/20 Q0998 NOSIG
Conditions at: OTBD (DOHA INTL AIRPOR, QA) observed 2130 UTC 17 August 2019
Temperature: 33.0°C (91°F)
Dewpoint: 20.0°C (68°F) [RH = 46%]
Pressure (altimeter): 29.47 inches Hg (998.0 mb)
Winds: from the NNW (340 degrees) at 5 MPH (4 knots; 2.1 m/s)
Visibility: 6 or more miles (10+ km)
Ceiling: ceiling and visibility are OK
Clouds: unknown
Weather: no significant weather observed at this time

METAR text: OTBD 172100Z AUTO 34005KT CAVOK 34/22 Q0998 NOSIG
Conditions at: OTBD (DOHA INTL AIRPOR, QA) observed 2100 UTC 17 August 2019
Temperature: 34.0°C (93°F)
Dewpoint: 22.0°C (72°F) [RH = 50%]
Pressure (altimeter): 29.47 inches Hg (998.0 mb)
Winds: from the NNW (340 degrees) at 6 MPH (5 knots; 2.6 m/s)
Visibility: 6 or more miles (10+ km)
Ceiling: ceiling and visibility are OK
Clouds: unknown
Weather: no significant weather observed at this time

METAR text: OTBD 172030Z AUTO 32004KT 290V350 CAVOK 34/22 Q0998 NOSIG
Conditions at: OTBD (DOHA INTL AIRPOR, QA) observed 2030 UTC 17 August 2019
Temperature: 34.0°C (93°F)
Dewpoint: 22.0°C (72°F) [RH = 50%]
Pressure (altimeter): 29.47 inches Hg (998.0 mb)
Winds: from the NW (320 degrees) at 5 MPH (4 knots; 2.1 m/s)
Visibility: 6 or more miles (10+ km)
Ceiling: ceiling and visibility are OK
Clouds: unknown
Weather: no significant weather observed at this time

METAR text: OTBD 172000Z AUTO 34005KT CAVOK 34/22 Q0998 NOSIG
Conditions at: OTBD (DOHA INTL AIRPOR, QA) observed 2000 UTC 17 August 2019
Temperature: 34.0°C (93°F)
Dewpoint: 22.0°C (72°F) [RH = 50%]
Pressure (altimeter): 29.47 inches Hg (998.0 mb)
Winds: from the NNW (340 degrees) at 6 MPH (5 knots; 2.6 m/s)
Visibility: 6 or more miles (10+ km)
Ceiling: ceiling and visibility are OK
Clouds: unknown
Weather: no significant weather observed at this time

METAR text: OTBD 171930Z AUTO 36006KT CAVOK 34/22 Q0999 NOSIG
Conditions at: OTBD (DOHA INTL AIRPOR, QA) observed 1930 UTC 17 August 2019
Temperature: 34.0°C (93°F)
Dewpoint: 22.0°C (72°F) [RH = 50%]
Pressure (altimeter): 29.50 inches Hg (999.0 mb)
Winds: from the N (360 degrees) at 7 MPH (6 knots; 3.1 m/s)
Visibility: 6 or more miles (10+ km)
Ceiling: ceiling and visibility are OK
Clouds: unknown
Weather: no significant weather observed at this time

METAR text: OTBD 171900Z CHECK TEXT NEW ENDING ADDED OEJNYFYX
Conditions at: OTBD (DOHA INTL AIRPOR, QA) observed 1900 UTC 17 August 2019
Temperature: missing
Dewpoint: missing
Pressure (altimeter): missing
Winds: missing
Visibility: missing
Ceiling: unknown
Clouds: missing
Weather: no significant weather observed at this time

METAR text: OTBD 171830Z AUTO 33010KT CAVOK 36/18 Q0999 NOSIG
Conditions at: OTBD (DOHA INTL AIRPOR, QA) observed 1830 UTC 17 August 2019
Temperature: 36.0°C (97°F)
Dewpoint: 18.0°C (64°F) [RH = 35%]
Pressure (altimeter): 29.50 inches Hg (999.0 mb)
Winds: from the NNW (330 degrees) at 12 MPH (10 knots; 5.1 m/s)
Visibility: 6 or more miles (10+ km)
Ceiling: ceiling and visibility are OK
Clouds: unknown
Weather: no significant weather observed at this time

METAR text: OTBD 171800Z AUTO 34012KT CAVOK 36/19 Q0998 NOSIG
Conditions at: OTBD (DOHA INTL AIRPOR, QA) observed 1800 UTC 17 August 2019
Temperature: 36.0°C (97°F)
Dewpoint: 19.0°C (66°F) [RH = 37%]
Pressure (altimeter): 29.47 inches Hg (998.0 mb)
Winds: from the NNW (340 degrees) at 14 MPH (12 knots; 6.2 m/s)
Visibility: 6 or more miles (10+ km)
Ceiling: ceiling and visibility are OK
Clouds: unknown
Weather: no significant weather observed at this time

METAR text: OTBD 171730Z AUTO 33012KT CAVOK 36/19 Q0998 NOSIG
Conditions at: OTBD (DOHA INTL AIRPOR, QA) observed 1730 UTC 17 August 2019
Temperature: 36.0°C (97°F)
Dewpoint: 19.0°C (66°F) [RH = 37%]
Pressure (altimeter): 29.47 inches Hg (998.0 mb)
Winds: from the NNW (330 degrees) at 14 MPH (12 knots; 6.2 m/s)
Visibility: 6 or more miles (10+ km)
Ceiling: ceiling and visibility are OK
Clouds: unknown
Weather: no significant weather observed at this time

METAR text: OTBD 171700Z AUTO 33012KT CAVOK 36/19 Q0998 NOSIG
Conditions at: OTBD (DOHA INTL AIRPOR, QA) observed 1700 UTC 17 August 2019
Temperature: 36.0°C (97°F)
Dewpoint: 19.0°C (66°F) [RH = 37%]
Pressure (altimeter): 29.47 inches Hg (998.0 mb)
Winds: from the NNW (330 degrees) at 14 MPH (12 knots; 6.2 m/s)
Visibility: 6 or more miles (10+ km)
Ceiling: ceiling and visibility are OK
Clouds: unknown
Weather: no significant weather observed at this time

METAR text: OTBD 171630Z AUTO 34012KT CAVOK 37/20 Q0998 NOSIG
Conditions at: OTBD (DOHA INTL AIRPOR, QA) observed 1630 UTC 17 August 2019
Temperature: 37.0°C (99°F)
Dewpoint: 20.0°C (68°F) [RH = 37%]
Pressure (altimeter): 29.47 inches Hg (998.0 mb)
Winds: from the NNW (340 degrees) at 14 MPH (12 knots; 6.2 m/s)
Visibility: 6 or more miles (10+ km)
Ceiling: ceiling and visibility are OK
Clouds: unknown
Weather: no significant weather observed at this time

METAR text: OTBD 171600Z AUTO 33012KT CAVOK 37/20 Q0998 NOSIG
Conditions at: OTBD (DOHA INTL AIRPOR, QA) observed 1600 UTC 17 August 2019
Temperature: 37.0°C (99°F)
Dewpoint: 20.0°C (68°F) [RH = 37%]
Pressure (altimeter): 29.47 inches Hg (998.0 mb)
Winds: from the NNW (330 degrees) at 14 MPH (12 knots; 6.2 m/s)
Visibility: 6 or more miles (10+ km)
Ceiling: ceiling and visibility are OK
Clouds: unknown
Weather: no significant weather observed at this time

Forecast for: OTBD (DOHA INTL AIRPOR, QA)
Text: TAF OTBD 182302Z 1900/2006 32005KT 8000 NSC
Forecast period: 0000 to 0700 UTC 19 August 2019
Forecast type: FROM: standard forecast or significant change
Winds: from the NW (320 degrees) at 6 MPH (5 knots; 2.6 m/s)
Visibility: 5 miles (8 km)
Ceiling: unknown
Clouds: missing
Weather: no significant weather forecast for this period
Text: BECMG 1907/1909 06011KT
Forecast period: 0700 UTC 19 August 2019 to 0600 UTC 20 August 2019
Forecast type: BECOMING: Conditions expected to become as follows by 0900 UTC 19 August 2019
Winds: from the ENE (60 degrees) at 13 MPH (11 knots; 5.7 m/s)
Visibility: 5 miles (8 km)
Ceiling: unknown
Clouds: missing
Weather: no significant weather forecast for this period